Time;durP1;ratioP1;P1;durP2;ratioP2;P2;SDS_P1;SDS_P2;PMS_P1;PMS_P2;Temp;Humidity;BMP_temperature;BMP_pressure;BME280_temperature;BME280_humidity;BME280_pressure;Samples;Min_cycle;Max_cycle;Signal;HPM_P1;HPM_P2
2022/08/20 00:01:16;;;;;;;12.45;5.65;;;;;;;26.35;59.15;98974.03;4476561;31;33139;-64
2022/08/20 00:03:43;;;;;;;11.52;6.05;;;;;;;26.40;59.06;98982.41;4479253;32;33747;-63
2022/08/20 00:06:22;;;;;;;11.02;5.22;;;;;;;26.44;58.79;98989.06;4473032;31;33700;-63
2022/08/20 00:08:50;;;;;;;9.90;5.30;;;;;;;26.42;58.43;98985.72;4480103;32;33074;-63
2022/08/20 00:11:22;;;;;;;10.40;5.80;;;;;;;26.37;58.27;98994.69;4478681;31;32991;-63
2022/08/20 00:13:54;;;;;;;11.48;5.28;;;;;;;26.40;58.18;98996.94;4477841;32;33592;-63
2022/08/20 00:16:25;;;;;;;14.35;5.37;;;;;;;26.37;58.71;99004.81;4479539;32;34039;-63
2022/08/20 00:18:53;;;;;;;11.48;5.32;;;;;;;26.46;58.15;99004.25;4476683;31;33606;-63
2022/08/20 00:21:21;;;;;;;12.23;4.95;;;;;;;26.21;59.16;99001.66;4479950;32;34294;-63
2022/08/20 00:23:52;;;;;;;9.43;5.07;;;;;;;26.32;58.50;99008.25;4476441;31;33620;-62
2022/08/20 00:26:22;;;;;;;13.85;5.55;;;;;;;26.36;58.32;99014.12;4475770;32;33830;-63
2022/08/20 00:28:50;;;;;;;7.70;5.12;;;;;;;26.28;58.53;99009.78;4476840;31;32740;-63
2022/08/20 00:31:20;;;;;;;13.45;5.37;;;;;;;26.40;58.18;99007.91;4477208;32;32750;-61
2022/08/20 00:33:48;;;;;;;14.75;5.20;;;;;;;26.51;58.06;99014.53;4474272;31;33086;-62
2022/08/20 00:36:16;;;;;;;9.70;4.78;;;;;;;26.58;58.22;99012.53;4477648;32;33648;-61
2022/08/20 00:38:45;;;;;;;9.80;4.60;;;;;;;26.65;57.78;99009.69;4477490;32;34063;-61
2022/08/20 00:41:18;;;;;;;12.45;5.10;;;;;;;26.39;59.07;99008.16;4481140;32;33807;-60
2022/08/20 00:44:11;;;;;;;8.65;5.10;;;;;;;26.41;58.84;99017.81;4477445;32;33560;-63
2022/08/20 00:46:40;;;;;;;9.45;4.50;;;;;;;26.60;58.62;99012.28;4481934;32;35234;-63
2022/08/20 00:49:13;;;;;;;9.52;4.93;;;;;;;26.53;58.76;99012.41;4479083;32;34817;-63
2022/08/20 00:51:57;;;;;;;10.75;5.20;;;;;;;26.23;59.91;99009.69;4479385;32;34201;-63
2022/08/20 00:54:34;;;;;;;8.48;4.57;;;;;;;26.60;58.81;98993.06;4475558;32;33735;-62
2022/08/20 00:57:11;;;;;;;13.93;5.55;;;;;;;26.60;58.38;98993.91;4478943;32;32763;-61
2022/08/20 00:59:41;;;;;;;10.82;4.95;;;;;;;26.70;57.76;98983.16;4472898;32;34231;-61
2022/08/20 01:02:12;;;;;;;10.70;4.75;;;;;;;26.63;57.89;98987.09;4469350;32;34438;-61
2022/08/20 01:04:39;;;;;;;8.70;4.97;;;;;;;26.48;58.22;98984.81;4480182;32;35046;-61
2022/08/20 01:07:07;;;;;;;10.85;5.22;;;;;;;26.59;58.08;98989.50;4482516;32;35095;-61
2022/08/20 01:09:36;;;;;;;9.80;4.87;;;;;;;26.56;58.20;98986.41;4480211;32;34602;-62
2022/08/20 01:12:24;;;;;;;9.95;5.03;;;;;;;26.24;59.17;98990.22;4482528;32;33097;-62
2022/08/20 01:14:52;;;;;;;16.52;6.28;;;;;;;26.16;59.73;98992.47;4483466;32;32473;-61
2022/08/20 01:17:22;;;;;;;12.55;7.65;;;;;;;26.02;59.12;98998.16;4482950;32;35291;-61
2022/08/20 01:19:57;;;;;;;17.08;6.87;;;;;;;25.69;60.10;98992.28;4482254;32;33105;-61
2022/08/20 01:25:37;;;;;;;13.13;7.40;;;;;;;25.79;60.78;98984.34;4479860;32;34660;-61
2022/08/20 01:28:05;;;;;;;15.73;7.15;;;;;;;25.85;60.10;98980.69;4484548;32;33971;-61
2022/08/20 01:30:32;;;;;;;16.75;7.35;;;;;;;25.34;61.76;98979.22;4473692;32;34115;-61
2022/08/20 01:33:01;;;;;;;13.90;8.98;;;;;;;25.25;62.04;98978.69;4481542;32;34577;-62
2022/08/20 01:35:29;;;;;;;14.73;7.30;;;;;;;24.75;63.53;98965.09;4473860;32;32381;-61
2022/08/20 01:37:56;;;;;;;14.57;6.15;;;;;;;24.73;64.38;98960.91;4469527;32;34040;-61
2022/08/20 01:40:43;;;;;;;11.73;7.85;;;;;;;24.41;65.58;98947.31;4482739;32;32262;-61
2022/08/20 01:43:11;;;;;;;12.32;7.25;;;;;;;25.06;63.36;98955.06;4478813;32;31736;-61
2022/08/20 01:45:40;;;;;;;11.20;7.62;;;;;;;25.30;62.60;98959.66;4477200;32;33828;-61
2022/08/20 01:48:07;;;;;;;16.48;8.10;;;;;;;24.70;64.62;98955.88;4482789;32;33649;-61
2022/08/20 01:50:38;;;;;;;15.25;7.68;;;;;;;25.11;62.31;98963.44;4481715;32;33835;-61
2022/08/20 01:53:13;;;;;;;14.57;7.55;;;;;;;24.90;63.26;98970.19;4477421;32;35146;-61
2022/08/20 01:55:40;;;;;;;14.05;8.63;;;;;;;25.08;62.83;98970.22;4474611;32;33624;-61
2022/08/20 01:58:08;;;;;;;13.57;7.87;;;;;;;25.32;62.09;98957.53;4468607;32;32788;-61
2022/08/20 02:00:35;;;;;;;15.77;7.32;;;;;;;25.38;61.86;98961.25;4475624;32;34941;-61
2022/08/20 02:03:03;;;;;;;16.10;8.02;;;;;;;25.27;62.01;98954.66;4481785;32;33312;-61
2022/08/20 02:05:32;;;;;;;15.52;5.97;;;;;;;25.15;62.22;98942.78;4477801;32;34065;-61
2022/08/20 02:08:00;;;;;;;14.60;7.32;;;;;;;25.30;61.63;98940.50;4481644;32;33576;-61
2022/08/20 02:10:30;;;;;;;12.23;8.40;;;;;;;25.26;61.83;98935.69;4483225;32;33887;-61
2022/08/20 02:12:59;;;;;;;13.82;7.15;;;;;;;25.17;62.02;98932.47;4483135;32;31918;-61
2022/08/20 02:15:28;;;;;;;13.82;7.03;;;;;;;25.32;61.79;98932.88;4480107;32;34895;-61
2022/08/20 02:18:13;;;;;;;14.98;7.22;;;;;;;25.50;60.94;98937.50;4482688;32;34891;-61
2022/08/20 02:20:42;;;;;;;14.95;7.07;;;;;;;25.53;61.40;98942.53;4482340;32;33838;-61
2022/08/20 02:23:11;;;;;;;14.02;7.57;;;;;;;25.68;60.92;98938.50;4482633;32;34799;-61
2022/08/20 02:25:40;;;;;;;11.23;7.00;;;;;;;25.85;59.65;98936.84;4479737;32;33905;-61
2022/08/20 02:28:13;;;;;;;12.52;7.20;;;;;;;25.84;59.91;98934.31;4483800;32;34959;-61
2022/08/20 02:30:47;;;;;;;10.68;6.35;;;;;;;25.46;60.66;98933.56;4481355;32;32573;-61
2022/08/20 02:33:17;;;;;;;13.40;5.80;;;;;;;25.91;59.32;98948.78;4481990;32;32292;-61
2022/08/20 02:35:47;;;;;;;11.75;6.40;;;;;;;25.93;59.32;98958.41;4472337;32;33319;-62
2022/08/20 02:38:15;;;;;;;14.40;7.20;;;;;;;25.97;59.23;98964.28;4479490;32;34740;-61
2022/08/20 02:40:44;;;;;;;12.98;6.62;;;;;;;25.94;59.28;98973.81;4480602;32;33566;-61
2022/08/20 02:43:13;;;;;;;12.23;6.32;;;;;;;26.02;58.93;98967.16;4482612;32;33289;-62
2022/08/20 02:45:42;;;;;;;11.20;6.25;;;;;;;25.93;59.54;98958.41;4480519;32;33597;-61
2022/08/20 02:48:19;;;;;;;12.43;6.10;;;;;;;26.15;58.68;98964.22;4481880;32;34082;-62
2022/08/20 02:50:55;;;;;;;13.27;7.30;;;;;;;26.16;58.18;98954.94;4482007;32;33411;-63
2022/08/20 02:53:24;;;;;;;10.98;6.07;;;;;;;26.04;58.93;98962.28;4484118;32;33014;-62
2022/08/20 02:55:52;;;;;;;12.45;6.47;;;;;;;26.06;58.71;98964.78;4481398;32;33613;-62
2022/08/20 02:58:20;;;;;;;12.32;6.87;;;;;;;26.10;58.70;98964.09;4482481;32;34050;-62
2022/08/20 03:00:48;;;;;;;12.48;6.78;;;;;;;26.03;58.94;98971.56;4471969;32;32016;-62
2022/08/20 03:03:21;;;;;;;14.87;6.03;;;;;;;25.87;59.18;98973.06;4479880;32;33252;-62
2022/08/20 03:05:52;;;;;;;11.70;6.22;;;;;;;25.75;59.36;98985.88;4481955;32;34562;-63
2022/08/20 03:08:21;;;;;;;11.60;6.35;;;;;;;25.62;59.67;99018.91;4481760;32;35241;-61
2022/08/20 03:10:50;;;;;;;11.63;6.15;;;;;;;25.66;59.62;99042.91;4482492;32;32736;-61
2022/08/20 03:13:18;;;;;;;16.08;7.43;;;;;;;25.10;61.24;99072.13;4483649;32;33701;-62
2022/08/20 03:15:49;;;;;;;16.50;7.25;;;;;;;25.22;61.01;99057.72;4480410;32;32254;-61
2022/08/20 03:18:26;;;;;;;11.02;7.10;;;;;;;25.31;61.22;99048.16;4479092;32;34602;-61
2022/08/20 03:20:54;;;;;;;12.50;7.78;;;;;;;24.98;62.01;99043.81;4480883;32;33912;-62
2022/08/20 03:23:22;;;;;;;12.65;7.72;;;;;;;25.18;61.44;99053.75;4478866;32;33181;-62
2022/08/20 03:25:49;;;;;;;18.12;7.85;;;;;;;25.12;62.14;99060.97;4480020;32;33660;-61
2022/08/20 03:28:18;;;;;;;13.55;7.50;;;;;;;25.30;61.57;99061.00;4483691;32;35007;-61
2022/08/20 03:30:45;;;;;;;10.60;6.90;;;;;;;25.53;60.58;99075.94;4467110;32;34055;-63
2022/08/20 03:33:15;;;;;;;14.38;7.85;;;;;;;25.52;60.66;99075.09;4477810;32;32577;-64
2022/08/20 03:35:42;;;;;;;10.35;7.47;;;;;;;24.97;62.85;99061.28;4481142;32;34966;-62
2022/08/20 03:38:11;;;;;;;15.18;8.02;;;;;;;25.21;62.06;99073.31;4481054;32;33817;-62
2022/08/20 03:40:39;;;;;;;13.40;8.48;;;;;;;24.90;62.99;99060.50;4482849;32;32774;-61
2022/08/20 03:43:08;;;;;;;15.05;8.43;;;;;;;24.87;63.63;99064.53;4479424;32;34583;-62
2022/08/20 03:45:38;;;;;;;11.75;8.13;;;;;;;24.80;63.51;99060.19;4480394;32;35013;-62
2022/08/20 03:48:07;;;;;;;17.27;7.90;;;;;;;25.06;62.82;99059.94;4468283;32;34016;-63
2022/08/20 03:50:35;;;;;;;11.27;6.80;;;;;;;24.56;64.28;99059.97;4479522;32;33270;-62
2022/08/20 03:53:02;;;;;;;16.45;7.85;;;;;;;24.23;65.71;99053.84;4480861;32;33146;-61
2022/08/20 03:55:31;;;;;;;13.48;8.43;;;;;;;24.48;64.73;99053.91;4470087;32;34841;-62
2022/08/20 03:58:05;;;;;;;14.15;7.85;;;;;;;24.94;63.64;99059.00;4480994;32;34105;-61
2022/08/20 04:00:42;;;;;;;12.95;7.72;;;;;;;25.18;62.57;99059.25;4476324;32;34108;-62
2022/08/20 04:03:10;;;;;;;13.82;8.07;;;;;;;25.27;62.17;99057.88;4480682;32;32950;-62
2022/08/20 04:05:39;;;;;;;15.45;8.43;;;;;;;25.48;61.56;99062.91;4478484;32;34847;-63
2022/08/20 04:08:10;;;;;;;17.23;10.02;;;;;;;25.50;61.58;99069.00;4480217;32;34962;-63
2022/08/20 04:10:38;;;;;;;15.60;9.07;;;;;;;25.08;62.64;99059.72;4475221;32;32601;-63
2022/08/20 04:13:06;;;;;;;15.02;8.30;;;;;;;24.73;64.00;99054.78;4478100;32;33153;-63
2022/08/20 04:15:35;;;;;;;17.95;9.90;;;;;;;24.69;64.19;99037.12;4480622;32;35035;-61
2022/08/20 04:18:08;;;;;;;16.23;9.45;;;;;;;24.74;64.14;99031.81;4477178;32;34652;-61
2022/08/20 04:20:37;;;;;;;18.17;9.73;;;;;;;24.47;65.19;99011.22;4480012;32;33652;-62
2022/08/20 04:23:06;;;;;;;18.70;10.30;;;;;;;24.96;63.41;99013.09;4479478;32;33225;-61
2022/08/20 04:25:39;;;;;;;14.77;8.98;;;;;;;25.25;62.32;99017.03;4480205;32;34741;-61
2022/08/20 04:28:24;;;;;;;20.33;10.15;;;;;;;25.40;61.54;99022.12;4476931;32;35563;-62
2022/08/20 04:30:52;;;;;;;18.23;10.02;;;;;;;25.51;61.07;99031.47;4482254;32;32412;-61
2022/08/20 04:33:21;;;;;;;16.08;9.27;;;;;;;25.62;60.67;99033.47;4479022;32;33313;-61
2022/08/20 04:36:01;;;;;;;15.77;9.38;;;;;;;25.79;60.22;99022.72;4470912;32;32887;-61
2022/08/20 04:38:29;;;;;;;15.48;8.77;;;;;;;25.71;60.94;99021.09;4477621;32;35613;-61
2022/08/20 04:41:18;;;;;;;13.18;8.55;;;;;;;25.46;61.08;99029.44;4480933;32;33757;-61
2022/08/20 04:43:52;;;;;;;13.18;8.07;;;;;;;25.48;60.74;99035.50;4482121;32;34335;-61
2022/08/20 04:46:24;;;;;;;17.62;8.15;;;;;;;25.66;60.19;99036.59;4479722;32;33702;-62
2022/08/20 04:48:52;;;;;;;17.62;7.75;;;;;;;25.78;59.98;99023.78;4481954;32;33670;-61
2022/08/20 04:51:20;;;;;;;15.35;8.95;;;;;;;25.74;59.95;99023.38;4483466;32;35162;-61
2022/08/20 04:53:52;;;;;;;13.13;7.62;;;;;;;25.71;59.99;99020.28;4483211;32;31313;-61
2022/08/20 04:56:24;;;;;;;13.15;7.12;;;;;;;25.52;60.25;99030.41;4483413;32;34789;-62
2022/08/20 04:58:54;;;;;;;13.75;7.78;;;;;;;25.69;59.60;99036.12;4476662;32;34582;-61
2022/08/20 05:01:22;;;;;;;10.82;6.37;;;;;;;25.78;59.31;99043.81;4472008;32;35527;-63
2022/08/20 05:03:54;;;;;;;12.40;7.15;;;;;;;25.87;59.11;99051.72;4479958;32;33078;-62
2022/08/20 05:06:27;;;;;;;16.35;7.30;;;;;;;25.90;58.84;99059.50;4474888;32;33688;-63
2022/08/20 05:08:56;;;;;;;12.90;7.07;;;;;;;25.93;58.92;99050.81;4479880;32;33942;-62
2022/08/20 05:11:25;;;;;;;11.93;6.37;;;;;;;25.60;60.11;99051.19;4474379;32;34700;-62
2022/08/20 05:14:05;;;;;;;11.73;6.47;;;;;;;25.89;59.19;99042.22;4473933;32;33379;-61
2022/08/20 05:16:38;;;;;;;13.73;7.05;;;;;;;25.82;60.04;99044.22;4479140;32;34298;-61
2022/08/20 05:19:08;;;;;;;16.40;6.30;;;;;;;25.88;59.35;99046.03;4483350;32;34950;-61
2022/08/20 05:21:36;;;;;;;10.82;5.43;;;;;;;26.05;58.61;99048.94;4477603;32;35514;-61
2022/08/20 05:24:04;;;;;;;16.52;7.72;;;;;;;26.02;58.75;99042.03;4484643;32;34175;-60
2022/08/20 05:26:32;;;;;;;13.23;6.53;;;;;;;25.99;58.54;99047.97;4483541;32;34978;-61
2022/08/20 05:29:03;;;;;;;11.35;7.10;;;;;;;25.95;58.90;99045.94;4483790;32;35158;-61
2022/08/20 05:31:32;;;;;;;12.32;6.35;;;;;;;25.89;58.92;99042.22;4481708;32;33929;-60
2022/08/20 05:34:09;;;;;;;11.95;6.62;;;;;;;26.14;58.40;99038.50;4471408;32;34688;-61
2022/08/20 05:36:48;;;;;;;10.40;5.82;;;;;;;26.13;58.32;99023.97;4483506;32;33747;-61
2022/08/20 05:39:19;;;;;;;11.93;6.05;;;;;;;26.24;58.01;99025.87;4483945;32;34027;-61
2022/08/20 05:41:51;;;;;;;14.80;6.87;;;;;;;26.50;57.51;99021.09;4479874;32;35172;-61
2022/08/20 05:44:18;;;;;;;8.82;6.00;;;;;;;26.30;58.37;99026.03;4484165;32;33572;-61
2022/08/20 05:46:47;;;;;;;11.10;6.18;;;;;;;26.18;58.39;99020.50;4482067;32;33617;-61
2022/08/20 05:49:18;;;;;;;11.02;5.95;;;;;;;26.60;57.86;99015.03;4477624;32;35161;-61
2022/08/20 05:51:48;;;;;;;9.48;6.05;;;;;;;26.58;57.84;99011.66;4484054;32;34720;-61
2022/08/20 05:54:15;;;;;;;15.32;7.45;;;;;;;26.62;57.30;99019.22;4484747;32;32013;-61
2022/08/20 05:56:43;;;;;;;12.93;6.03;;;;;;;26.66;57.59;99028.62;4481370;32;35059;-61
2022/08/20 05:59:12;;;;;;;14.40;6.78;;;;;;;26.75;56.84;99036.53;4484401;32;33773;-61
2022/08/20 06:01:40;;;;;;;13.30;7.65;;;;;;;25.79;60.07;99031.75;4479625;32;34757;-63
2022/08/20 06:04:26;;;;;;;14.20;8.00;;;;;;;26.05;59.20;99032.50;4480745;32;34308;-63
2022/08/20 06:06:56;;;;;;;16.30;8.05;;;;;;;25.65;60.83;99022.06;4477992;32;32382;-63
2022/08/20 06:09:24;;;;;;;14.90;9.07;;;;;;;26.12;60.16;99014.03;4483060;32;32649;-63
2022/08/20 06:12:04;;;;;;;13.52;7.75;;;;;;;26.35;59.60;99026.97;4482842;32;35329;-63
2022/08/20 06:14:33;;;;;;;14.07;7.85;;;;;;;26.09;60.33;99041.94;4471132;32;31812;-63
2022/08/20 06:17:05;;;;;;;12.65;8.30;;;;;;;25.87;60.63;99022.41;4480006;32;33855;-61
2022/08/20 06:19:34;;;;;;;12.75;8.05;;;;;;;26.08;59.84;99034.78;4481636;32;33787;-63
2022/08/20 06:22:04;;;;;;;14.98;8.75;;;;;;;26.05;59.72;99032.50;4481812;32;33700;-63
2022/08/20 06:24:46;;;;;;;15.05;7.78;;;;;;;26.40;59.01;99037.28;4484097;32;34196;-63
2022/08/20 06:27:14;;;;;;;11.65;7.30;;;;;;;26.38;58.64;99042.97;4482580;32;36135;-63
2022/08/20 06:29:42;;;;;;;13.00;6.12;;;;;;;26.10;58.79;99043.63;4483969;32;34079;-61
2022/08/20 06:32:10;;;;;;;10.48;5.37;;;;;;;26.19;58.27;99058.66;4482621;32;32755;-61
2022/08/20 06:34:37;;;;;;;10.77;6.35;;;;;;;26.23;58.22;99062.63;4481223;32;32968;-61
2022/08/20 06:37:22;;;;;;;14.93;6.10;;;;;;;26.33;57.36;99081.25;4484556;32;33940;-61
2022/08/20 06:40:05;;;;;;;12.37;7.80;;;;;;;25.98;58.40;99100.31;4480485;32;35073;-61
2022/08/20 06:42:33;;;;;;;17.42;9.20;;;;;;;25.95;59.36;99101.59;4470596;32;33655;-61
2022/08/20 06:45:04;;;;;;;18.37;8.98;;;;;;;25.72;61.07;99094.06;4469059;32;34260;-63
2022/08/20 06:47:32;;;;;;;14.77;8.25;;;;;;;25.04;63.33;99074.91;4477522;32;33802;-63
2022/08/20 06:50:00;;;;;;;17.52;9.38;;;;;;;25.50;62.59;99084.59;4481925;32;34028;-63
2022/08/20 06:52:27;;;;;;;15.80;9.00;;;;;;;25.97;61.06;99094.00;4483497;32;33908;-61
2022/08/20 06:55:16;;;;;;;14.20;7.60;;;;;;;26.34;60.20;99104.03;4482900;32;33448;-61
2022/08/20 06:57:44;;;;;;;15.45;7.15;;;;;;;26.41;59.06;99115.75;4473425;32;35115;-61
2022/08/20 07:00:17;;;;;;;14.57;7.65;;;;;;;26.63;58.15;99118.84;4478088;32;33813;-61
2022/08/20 07:02:48;;;;;;;15.33;7.70;;;;;;;26.32;58.91;99119.88;4477894;32;33354;-61
2022/08/20 07:05:16;;;;;;;12.95;6.47;;;;;;;26.72;57.67;99122.94;4483309;32;32159;-61
2022/08/20 07:07:45;;;;;;;16.30;8.35;;;;;;;26.38;58.20;99133.50;4478795;32;32317;-61
2022/08/20 07:10:14;;;;;;;10.52;6.37;;;;;;;26.84;57.06;99139.44;4475874;32;35816;-63
2022/08/20 07:12:42;;;;;;;11.75;6.45;;;;;;;26.94;57.15;99139.69;4483180;32;34774;-61
2022/08/20 07:15:10;;;;;;;15.93;7.03;;;;;;;26.94;56.36;99139.69;4481297;32;33290;-61
2022/08/20 07:17:39;;;;;;;11.43;6.12;;;;;;;26.98;57.01;99127.16;4483066;32;33898;-60
2022/08/20 07:20:09;;;;;;;14.38;6.57;;;;;;;26.99;56.21;99134.31;4473482;32;33920;-60
2022/08/20 07:22:37;;;;;;;10.95;6.55;;;;;;;27.13;55.73;99140.44;4474212;32;34288;-61
2022/08/20 07:25:08;;;;;;;13.90;6.97;;;;;;;26.91;57.48;99138.25;4481576;32;33393;-60
2022/08/20 07:27:36;;;;;;;14.52;6.18;;;;;;;27.00;57.76;99141.50;4478472;32;34803;-61
2022/08/20 07:32:52;;;;;;;13.75;7.25;;;;;;;27.13;56.76;99162.41;4479190;32;128214;-61
2022/08/20 07:35:21;;;;;;;14.38;6.68;;;;;;;26.97;57.45;99157.59;4484629;32;32185;-60
2022/08/20 07:37:50;;;;;;;9.68;5.65;;;;;;;27.07;57.21;99174.34;4481822;32;34919;-61
2022/08/20 07:40:22;;;;;;;13.20;6.40;;;;;;;26.88;57.40;99190.06;4483678;32;33712;-60
2022/08/20 07:42:57;;;;;;;14.20;6.57;;;;;;;26.43;59.01;99204.16;4482435;32;34930;-60
2022/08/20 07:45:26;;;;;;;10.18;6.40;;;;;;;26.47;58.98;99208.94;4481097;32;31961;-60
2022/08/20 07:47:54;;;;;;;12.63;7.20;;;;;;;26.18;59.70;99217.97;4481686;32;34858;-60
2022/08/20 07:50:24;;;;;;;17.35;7.45;;;;;;;25.40;62.41;99208.41;4477202;32;35216;-61
2022/08/20 07:52:52;;;;;;;9.95;6.05;;;;;;;25.38;62.30;99212.44;4476047;32;34159;-60
2022/08/20 07:55:22;;;;;;;11.10;6.05;;;;;;;25.07;61.73;99219.56;4481873;32;33400;-61
2022/08/20 07:57:49;;;;;;;9.75;5.40;;;;;;;24.98;62.01;99231.87;4480781;32;32334;-61
2022/08/20 08:00:20;;;;;;;11.98;5.55;;;;;;;25.00;61.49;99244.25;4482608;32;35320;-61
2022/08/20 08:02:48;;;;;;;11.25;5.43;;;;;;;24.80;62.01;99260.81;4481587;32;32876;-61
2022/08/20 08:05:17;;;;;;;13.55;6.25;;;;;;;24.60;63.15;99271.84;4480630;32;32344;-61
2022/08/20 08:07:45;;;;;;;10.65;5.32;;;;;;;24.90;61.32;99274.00;4479430;32;33533;-60
2022/08/20 08:10:19;;;;;;;12.57;6.07;;;;;;;24.98;61.14;99275.66;4482055;32;35246;-60
2022/08/20 08:12:49;;;;;;;14.25;5.72;;;;;;;25.12;61.20;99251.78;4476272;32;34004;-60
2022/08/20 08:15:21;;;;;;;14.20;5.53;;;;;;;25.52;60.50;99239.50;4467330;32;33072;-60
2022/08/20 08:17:51;;;;;;;13.80;5.07;;;;;;;25.84;58.98;99252.28;4482044;32;34794;-60
2022/08/20 08:20:21;;;;;;;11.98;5.28;;;;;;;25.73;58.06;99260.16;4485879;32;33087;-61
2022/08/20 08:22:49;;;;;;;11.93;5.40;;;;;;;25.72;58.83;99252.19;4484393;32;33197;-61
2022/08/20 08:25:17;;;;;;;9.13;4.57;;;;;;;25.98;58.40;99238.22;4470056;32;33503;-60
2022/08/20 08:27:47;;;;;;;15.27;5.47;;;;;;;26.06;58.30;99239.00;4479183;32;33966;-61
2022/08/20 08:30:15;;;;;;;12.82;5.72;;;;;;;26.15;57.69;99245.84;4484208;32;32634;-61
2022/08/20 08:35:36;;;;;;;13.23;5.75;;;;;;;26.28;57.49;99248.44;4460859;32;32951;-61
2022/08/20 08:38:07;;;;;;;11.05;5.43;;;;;;;26.21;58.19;99248.53;4482820;32;32625;-61
2022/08/20 08:40:41;;;;;;;13.68;5.28;;;;;;;26.21;58.16;99256.75;4470045;32;33782;-60
2022/08/20 08:43:11;;;;;;;14.07;5.43;;;;;;;26.08;58.65;99232.22;4478344;32;33799;-62
2022/08/20 08:45:42;;;;;;;12.73;5.47;;;;;;;26.07;59.15;99218.72;4474624;32;31777;-61
2022/08/20 08:48:12;;;;;;;10.30;4.95;;;;;;;25.85;59.99;99189.03;4482313;32;33758;-60
2022/08/20 08:50:48;;;;;;;10.90;5.62;;;;;;;26.25;58.37;99194.03;4483974;32;33481;-60
2022/08/20 08:53:24;;;;;;;13.75;5.95;;;;;;;26.07;58.82;99181.19;4478321;32;33451;-60
2022/08/20 08:55:53;;;;;;;14.05;5.22;;;;;;;25.76;59.58;99177.47;4480206;32;33448;-60
2022/08/20 08:58:21;;;;;;;10.88;5.28;;;;;;;26.13;58.31;99194.00;4483737;32;32488;-60
2022/08/20 09:00:48;;;;;;;11.70;5.60;;;;;;;25.70;59.53;99197.56;4474055;32;33303;-61
2022/08/20 09:03:28;;;;;;;12.52;5.20;;;;;;;25.98;58.74;99185.31;4480264;32;33853;-61
2022/08/20 09:05:58;;;;;;;13.98;5.70;;;;;;;25.99;58.14;99173.25;4483163;32;33836;-61
2022/08/20 09:08:31;;;;;;;13.52;5.28;;;;;;;26.10;57.92;99168.91;4484329;32;32601;-61
2022/08/20 09:11:05;;;;;;;12.77;5.87;;;;;;;26.15;58.00;99163.56;4484180;32;34332;-61
2022/08/20 09:13:33;;;;;;;19.42;6.35;;;;;;;26.12;58.07;99164.03;4483458;31;33928;-60
2022/08/20 09:16:01;;;;;;;16.92;6.50;;;;;;;26.19;58.27;99179.31;4482357;32;34521;-61
2022/08/20 09:18:29;;;;;;;11.98;6.10;;;;;;;26.04;59.11;99200.84;4478697;32;33806;-61
2022/08/20 09:20:57;;;;;;;10.32;5.85;;;;;;;26.19;58.35;99206.75;4485212;32;34873;-60
2022/08/20 09:23:24;;;;;;;12.70;6.30;;;;;;;26.12;58.25;99227.12;4481465;32;34966;-61
2022/08/20 09:25:52;;;;;;;10.65;5.75;;;;;;;25.48;59.91;99227.28;4483992;32;31577;-61
2022/08/20 09:28:20;;;;;;;11.80;5.28;;;;;;;25.41;60.31;99225.66;4483694;32;32313;-61
2022/08/20 09:30:47;;;;;;;12.50;5.45;;;;;;;24.85;61.87;99230.06;4473418;32;32643;-61
2022/08/20 09:33:17;;;;;;;10.65;5.32;;;;;;;24.41;62.94;99231.75;4467022;32;32371;-60
2022/08/20 09:35:45;;;;;;;9.45;5.87;;;;;;;24.48;62.63;99215.31;4480529;32;32937;-61
2022/08/20 09:38:12;;;;;;;12.18;5.55;;;;;;;24.76;61.90;99213.03;4479469;32;33833;-61
2022/08/20 09:40:40;;;;;;;11.30;5.45;;;;;;;24.47;61.91;99224.56;4472114;32;33610;-61
2022/08/20 09:43:08;;;;;;;8.18;4.15;;;;;;;24.16;62.90;99232.41;4484803;32;33892;-60
2022/08/20 09:45:35;;;;;;;14.60;4.40;;;;;;;24.29;62.13;99230.69;4476768;32;33404;-61
2022/08/20 09:48:04;;;;;;;11.32;4.85;;;;;;;23.61;64.95;99231.03;4483028;32;33349;-60
2022/08/20 09:50:41;;;;;;;14.45;5.62;;;;;;;23.12;66.27;99226.84;4484009;32;33652;-61
2022/08/20 09:53:09;;;;;;;13.23;6.15;;;;;;;23.54;65.80;99219.28;4479247;32;34019;-61
2022/08/20 09:55:43;;;;;;;8.20;3.83;;;;;;;23.40;66.54;99196.59;4484230;32;34191;-61
2022/08/20 09:58:32;;;;;;;8.60;4.07;;;;;;;23.55;66.42;99182.72;4481145;32;33856;-61
2022/08/20 10:01:06;;;;;;;9.50;4.82;;;;;;;23.68;66.22;99160.84;4474827;32;34101;-62
2022/08/20 10:03:41;;;;;;;9.35;3.80;;;;;;;23.34;68.27;99135.50;4479981;32;34015;-62
2022/08/20 10:06:10;;;;;;;10.25;4.95;;;;;;;23.87;66.06;99123.63;4478301;32;34483;-61
2022/08/20 10:08:37;;;;;;;10.77;4.87;;;;;;;23.72;65.80;99115.66;4480423;32;33598;-61
2022/08/20 10:11:05;;;;;;;8.48;4.05;;;;;;;23.77;65.79;99112.31;4479845;32;34168;-62
2022/08/20 10:13:33;;;;;;;9.60;4.37;;;;;;;23.27;67.16;99088.22;4481091;32;33613;-61
2022/08/20 10:16:00;;;;;;;10.57;4.70;;;;;;;23.76;65.92;99078.69;4473291;32;33549;-61
2022/08/20 10:18:28;;;;;;;10.60;5.60;;;;;;;23.80;66.16;99066.25;4474494;32;33604;-62
2022/08/20 10:20:55;;;;;;;10.38;5.40;;;;;;;23.29;69.05;99064.28;4482357;32;34185;-62
2022/08/20 10:23:23;;;;;;;13.90;5.12;;;;;;;23.62;69.79;99058.72;4480711;32;35000;-62
2022/08/20 10:25:51;;;;;;;8.63;4.78;;;;;;;23.86;68.10;99065.41;4482596;32;33961;-61
2022/08/20 10:28:18;;;;;;;7.80;4.50;;;;;;;24.22;66.80;99076.78;4473382;32;32150;-62
2022/08/20 10:30:46;;;;;;;12.18;5.28;;;;;;;24.33;66.24;99082.41;4473305;32;33749;-61
2022/08/20 10:33:13;;;;;;;9.88;4.35;;;;;;;23.96;67.98;99091.44;4474092;32;34060;-62
2022/08/20 10:35:41;;;;;;;8.52;4.85;;;;;;;24.56;64.23;99097.44;4483218;32;33290;-61
2022/08/20 10:38:09;;;;;;;11.30;4.40;;;;;;;24.67;66.29;99099.44;4484905;32;34521;-62
2022/08/20 10:40:37;;;;;;;7.55;4.40;;;;;;;24.46;66.49;99125.25;4482901;32;34883;-62
2022/08/20 10:43:04;;;;;;;9.85;3.70;;;;;;;25.17;64.18;99147.91;4483456;32;34074;-61
2022/08/20 10:45:32;;;;;;;9.60;4.15;;;;;;;25.36;62.79;99152.41;4481367;32;31998;-61
2022/08/20 10:48:01;;;;;;;10.50;3.58;;;;;;;25.70;61.79;99150.16;4483157;32;33675;-62
2022/08/20 10:50:28;;;;;;;7.93;3.53;;;;;;;25.88;60.84;99161.16;4484023;32;33816;-61
2022/08/20 10:52:57;;;;;;;11.65;3.28;;;;;;;25.65;60.66;99149.97;4476232;32;34686;-62
2022/08/20 10:55:25;;;;;;;9.98;3.53;;;;;;;25.75;58.62;99148.41;4476785;32;33429;-61
2022/08/20 10:57:52;;;;;;;7.55;3.10;;;;;;;25.79;59.94;99166.06;4477812;32;33746;-62
2022/08/20 11:00:20;;;;;;;5.22;2.42;;;;;;;25.64;59.71;99171.06;4471898;32;33720;-61
2022/08/20 11:02:48;;;;;;;6.57;3.00;;;;;;;25.94;58.80;99181.31;4482369;32;33658;-61
2022/08/20 11:05:16;;;;;;;7.50;3.58;;;;;;;26.04;58.07;99186.31;4471383;32;31930;-62
2022/08/20 11:07:44;;;;;;;7.18;3.45;;;;;;;26.27;57.22;99183.69;4479722;32;34513;-61
2022/08/20 11:10:25;;;;;;;9.77;3.12;;;;;;;26.20;57.94;99189.25;4466481;32;33541;-62
2022/08/20 11:12:52;;;;;;;7.37;3.15;;;;;;;26.08;58.73;99188.34;4472569;32;34905;-62
2022/08/20 11:15:20;;;;;;;7.43;3.10;;;;;;;26.21;59.29;99185.44;4469023;32;34242;-62
2022/08/20 11:17:48;;;;;;;10.30;3.90;;;;;;;26.30;58.63;99177.75;4481544;32;32296;-61
2022/08/20 11:20:18;;;;;;;8.63;3.70;;;;;;;26.52;57.32;99186.34;4475927;32;35289;-61
2022/08/20 11:22:46;;;;;;;12.35;4.60;;;;;;;26.48;59.06;99182.38;4468080;32;32764;-61
2022/08/20 11:25:13;;;;;;;10.23;3.87;;;;;;;26.70;58.12;99178.03;4472977;32;32920;-62
2022/08/20 11:27:43;;;;;;;7.85;3.37;;;;;;;27.02;58.90;99185.19;4479111;32;32585;-62
2022/08/20 11:30:18;;;;;;;7.72;2.90;;;;;;;26.45;58.22;99185.53;4475292;32;35303;-62
2022/08/20 11:32:46;;;;;;;8.00;3.05;;;;;;;27.08;58.28;99181.50;4468120;32;35028;-62
2022/08/20 11:35:14;;;;;;;5.95;2.62;;;;;;;26.86;56.94;99183.94;4466944;32;32824;-62
2022/08/20 11:38:02;;;;;;;8.13;3.47;;;;;;;26.90;57.62;99177.78;4468677;32;31936;-62
2022/08/20 11:40:30;;;;;;;5.93;3.35;;;;;;;26.67;57.27;99174.94;4475048;32;33746;-62
2022/08/20 11:42:58;;;;;;;9.70;4.12;;;;;;;26.74;56.64;99166.59;4472988;31;34160;-62
2022/08/20 11:45:47;;;;;;;9.02;3.70;;;;;;;27.05;56.07;99171.00;4474067;32;31638;-62
2022/08/20 11:48:15;;;;;;;9.23;4.15;;;;;;;26.84;55.35;99167.72;4474583;31;34906;-63
2022/08/20 11:50:43;;;;;;;7.47;3.50;;;;;;;26.68;58.34;99157.41;4480026;32;34022;-64